createdAt,value
2022-12-05T01:16:31.491Z,1.1
2022-12-05T01:56:31.570Z,0.6
2022-12-05T02:06:31.555Z,0.4
2022-12-05T02:16:31.643Z,0.2
2022-12-05T02:26:31.589Z,0.2
2022-12-05T02:56:31.722Z,0.1
2022-12-05T03:16:31.869Z,0.1
2022-12-05T03:26:31.777Z,0
2022-12-05T03:36:31.826Z,0
2022-12-05T03:46:31.942Z,0
2022-12-05T03:56:31.887Z,0
2022-12-05T04:06:31.892Z,0
2022-12-05T04:16:31.926Z,0
2022-12-05T04:26:31.947Z,0
2022-12-05T04:36:32.009Z,0
2022-12-05T04:46:32.127Z,0
2022-12-05T04:56:32.069Z,0
2022-12-05T05:06:32.055Z,0
2022-12-05T05:16:32.201Z,0
2022-12-05T05:26:32.120Z,0
2022-12-05T05:36:32.174Z,0
2022-12-05T05:46:32.319Z,0
2022-12-05T05:56:32.212Z,0
2022-12-05T06:06:32.213Z,0
2022-12-05T06:16:32.346Z,0
2022-12-05T06:26:32.307Z,0
2022-12-05T06:36:32.365Z,0
2022-12-05T06:46:32.346Z,0
2022-12-05T07:06:32.435Z,0
2022-12-05T07:26:32.485Z,0.1
2022-12-05T07:36:32.467Z,0.1
2022-12-05T07:46:32.539Z,0.1
2022-12-05T07:56:32.534Z,0.2
2022-12-05T08:06:32.575Z,0.2
2022-12-05T08:16:32.692Z,0.3
2022-12-05T08:26:32.668Z,0.4
2022-12-05T08:36:32.655Z,0.5
2022-12-05T08:46:32.778Z,0.6
2022-12-05T08:56:32.703Z,0.8
2022-12-05T09:06:32.776Z,0.7
2022-12-05T09:26:32.830Z,0.9
2022-12-05T09:36:32.952Z,0.9
2022-12-05T12:36:33.348Z,1.9
2022-12-05T17:56:34.217Z,0.3
2022-12-05T18:06:34.220Z,0.2
2022-12-05T18:16:34.412Z,0.2
2022-12-05T18:26:34.262Z,0.2
2022-12-05T18:36:34.327Z,0.3
2022-12-05T18:46:34.399Z,0.4
2022-12-05T19:16:34.552Z,0.4
2022-12-05T19:36:34.496Z,0.4
2022-12-05T19:46:34.500Z,0.5
2022-12-05T19:56:34.554Z,0.4
2022-12-05T20:16:34.690Z,0.5
2022-12-05T20:26:34.600Z,0.5
2022-12-05T21:06:34.765Z,0.6
2022-12-05T21:16:34.832Z,0.6
2022-12-05T21:26:34.814Z,0.6
2022-12-05T21:36:34.818Z,0.5
2022-12-05T21:46:34.934Z,0.5
2022-12-05T21:56:34.879Z,0.6
2022-12-05T22:16:34.999Z,0.6
2022-12-05T22:36:35.001Z,0.6
2022-12-05T22:46:35.043Z,0.6
2022-12-05T22:56:35.046Z,0.6
2022-12-05T23:06:35.050Z,0.5
2022-12-05T23:26:35.143Z,0.6
2022-12-05T23:36:35.154Z,0.6
